Terminal Aerodrome Forecast
Issued by NWS Caribou, ME

Home | Current Version | Previous Version | Text Only | Print | Product List | Glossary On
Versions: 1 2 3 4 5 6 7 8 9 10 11 12 13 14 15
000
FTUS41 KCAR 281720
TAFBGR
TAF
KBGR 281720Z 2818/2918 18008KT P6SM SCT050 BKN100
     FM281900 19007KT 6SM SHRA VCTS SCT030CB BKN045
      TEMPO 2819/2822 VRB15G30KT 2SM +TSRA OVC022CB
     FM290000 VRB03KT P6SM VCSH BKN040=

USA.gov is the U.S. government's official web portal to all federal, state and local government web resources and services.